Time;durP1;ratioP1;P1;durP2;ratioP2;P2;SDS_P1;SDS_P2;PMS_P1;PMS_P2;Temp;Humidity;BMP_temperature;BMP_pressure;BME280_temperature;BME280_humidity;BME280_pressure;Samples;Min_cycle;Max_cycle;Signal;HPM_P1;HPM_P2
2023/06/25 00:00:10;;;;;;;8.98;5.20;;;;;;;19.60;57.22;98741.31;4952592;28;20043;-76
2023/06/25 00:02:44;;;;;;;8.52;4.85;;;;;;;18.77;59.90;98746.91;4944066;29;20094;-75
2023/06/25 00:05:09;;;;;;;6.18;4.40;;;;;;;19.21;58.89;98755.84;4957081;28;20039;-74
2023/06/25 00:07:35;;;;;;;7.53;4.47;;;;;;;19.42;56.32;98747.50;4952738;28;20486;-75
2023/06/25 00:10:00;;;;;;;8.95;4.05;;;;;;;19.46;57.85;98751.28;4950172;29;20042;-75
2023/06/25 00:12:26;;;;;;;6.32;4.47;;;;;;;19.99;57.06;98750.16;4956737;28;20058;-75
2023/06/25 00:14:51;;;;;;;7.72;4.15;;;;;;;19.91;57.50;98748.03;4942941;28;20402;-76
2023/06/25 00:17:17;;;;;;;11.95;4.60;;;;;;;18.64;58.65;98739.38;4944726;29;20019;-77
2023/06/25 00:19:46;;;;;;;7.78;4.55;;;;;;;19.38;58.49;98738.25;4961765;28;20058;-77
2023/06/25 00:22:12;;;;;;;6.18;4.07;;;;;;;19.47;57.41;98740.06;4953478;29;20027;-75
2023/06/25 00:24:38;;;;;;;6.45;4.25;;;;;;;19.56;57.18;98726.56;4951633;28;20038;-73
2023/06/25 00:27:04;;;;;;;7.35;5.10;;;;;;;19.72;56.90;98719.88;4951747;29;20091;-73
2023/06/25 00:29:29;;;;;;;7.97;4.47;;;;;;;19.25;57.87;98718.66;4948513;29;20035;-73
2023/06/25 00:31:55;;;;;;;6.95;6.20;;;;;;;19.34;57.45;98732.53;4964127;28;20034;-74
2023/06/25 00:34:20;;;;;;;33.65;21.50;;;;;;;19.55;57.24;98722.22;4951458;29;20036;-75
2023/06/25 00:36:45;;;;;;;70.80;9.63;;;;;;;19.46;57.64;98723.97;4942023;29;20035;-76
2023/06/25 00:39:11;;;;;;;9.50;7.10;;;;;;;19.39;57.45;98728.97;4939152;29;20031;-76
2023/06/25 00:41:39;;;;;;;33.10;7.80;;;;;;;19.00;59.33;98729.81;4965034;28;20042;-76
2023/06/25 00:44:05;;;;;;;7.80;5.88;;;;;;;19.19;58.60;98736.19;4948572;28;20572;-77
2023/06/25 00:46:31;;;;;;;7.32;3.92;;;;;;;19.16;58.84;98716.84;4949391;29;20027;-76
2023/06/25 00:49:05;;;;;;;4.60;2.95;;;;;;;18.96;58.71;98720.56;4948361;29;20081;-76
2023/06/25 00:51:34;;;;;;;6.18;4.82;;;;;;;19.07;59.04;98727.56;4956169;28;20031;-76
2023/06/25 00:54:00;;;;;;;10.18;7.00;;;;;;;19.02;56.75;98722.13;4970571;28;20458;-76
2023/06/25 00:56:29;;;;;;;8.27;6.05;;;;;;;19.53;56.36;98724.44;4946479;28;20510;-76
2023/06/25 00:59:00;;;;;;;11.20;6.90;;;;;;;19.29;57.42;98718.91;4950179;29;20494;-76
2023/06/25 01:01:31;;;;;;;11.48;6.53;;;;;;;18.80;58.71;98710.06;4938253;29;20039;-75
2023/06/25 01:04:06;;;;;;;7.30;5.75;;;;;;;18.93;57.93;98710.22;4939257;28;20121;-75
2023/06/25 01:06:35;;;;;;;6.80;4.18;;;;;;;19.41;56.72;98693.97;4934983;29;20031;-75
2023/06/25 01:09:02;;;;;;;8.38;3.83;;;;;;;19.25;57.62;98702.25;4950842;29;20384;-75
2023/06/25 01:11:28;;;;;;;7.95;6.45;;;;;;;18.99;57.71;98705.53;4945946;29;20027;-75
2023/06/25 01:13:54;;;;;;;5.97;4.40;;;;;;;18.83;58.96;98704.84;4952242;28;20035;-74
2023/06/25 01:16:19;;;;;;;10.38;6.82;;;;;;;18.59;59.61;98703.94;4946116;29;20046;-74
2023/06/25 01:18:44;;;;;;;10.77;6.72;;;;;;;18.50;58.61;98692.81;4937845;29;20043;-76
2023/06/25 01:21:10;;;;;;;10.55;6.55;;;;;;;19.14;58.25;98703.47;4943033;29;20028;-76
2023/06/25 01:23:36;;;;;;;11.35;7.55;;;;;;;19.04;57.72;98706.28;4967830;28;20054;-76
2023/06/25 01:26:02;;;;;;;10.73;7.35;;;;;;;19.44;57.76;98704.31;4943666;28;20034;-76
2023/06/25 01:28:27;;;;;;;11.05;7.78;;;;;;;18.58;58.92;98697.66;4968049;28;20042;-75
2023/06/25 01:30:53;;;;;;;10.15;7.57;;;;;;;18.90;58.54;98699.88;4954046;29;20038;-76
2023/06/25 01:33:21;;;;;;;11.40;7.55;;;;;;;18.51;60.17;98690.88;4941185;28;20114;-76
2023/06/25 01:35:47;;;;;;;9.50;7.20;;;;;;;18.78;59.09;98696.69;4970113;28;20405;-76
2023/06/25 01:38:13;;;;;;;10.70;7.38;;;;;;;18.47;60.63;98690.66;4950039;29;20035;-77
2023/06/25 01:40:38;;;;;;;9.10;7.05;;;;;;;18.51;60.07;98699.88;4947169;29;20042;-77
2023/06/25 01:43:03;;;;;;;10.38;6.20;;;;;;;18.73;59.79;98694.00;4951817;28;20039;-76
2023/06/25 01:45:29;;;;;;;8.57;5.47;;;;;;;18.16;61.05;98682.88;4945890;29;20058;-76
2023/06/25 01:47:54;;;;;;;10.43;5.20;;;;;;;18.91;58.82;98690.56;4937745;29;20061;-76
2023/06/25 01:50:20;;;;;;;8.98;5.57;;;;;;;18.35;60.66;98675.69;4921945;29;20054;-76
2023/06/25 01:52:46;;;;;;;10.13;4.95;;;;;;;18.93;58.40;98693.84;4940438;29;20054;-76
2023/06/25 01:55:11;;;;;;;7.55;4.78;;;;;;;18.64;59.21;98684.81;4943937;29;20031;-76
2023/06/25 01:57:36;;;;;;;9.95;6.18;;;;;;;18.84;58.55;98687.38;4948519;29;20402;-75
2023/06/25 02:00:04;;;;;;;8.25;4.88;;;;;;;19.15;58.38;98676.97;4943214;29;20031;-76
2023/06/25 02:02:41;;;;;;;9.13;6.07;;;;;;;18.35;60.32;98670.25;4963258;28;20071;-75
2023/06/25 02:05:07;;;;;;;7.88;6.95;;;;;;;18.63;60.06;98677.72;4945165;29;20511;-74
2023/06/25 02:07:32;;;;;;;7.43;6.53;;;;;;;18.46;60.50;98666.41;4956122;28;20034;-75
2023/06/25 02:09:58;;;;;;;8.35;6.60;;;;;;;18.33;60.77;98661.53;4958696;28;20118;-75
2023/06/25 02:12:23;;;;;;;9.85;7.07;;;;;;;18.44;60.78;98663.06;4951016;29;20126;-75
2023/06/25 02:14:49;;;;;;;9.93;7.45;;;;;;;18.27;61.64;98662.66;4942277;28;20167;-75
2023/06/25 02:17:14;;;;;;;10.15;7.22;;;;;;;18.51;61.20;98660.88;4939730;29;20031;-76
2023/06/25 02:19:39;;;;;;;7.93;7.00;;;;;;;18.70;60.08;98664.56;4941447;28;20050;-77
2023/06/25 02:22:06;;;;;;;8.82;7.28;;;;;;;18.07;62.21;98651.88;4963122;28;20528;-77
2023/06/25 02:24:31;;;;;;;8.63;7.05;;;;;;;18.35;61.77;98653.88;4945632;29;20035;-77
2023/06/25 02:26:57;;;;;;;9.70;7.25;;;;;;;18.70;60.25;98667.28;4940478;28;20034;-76
2023/06/25 02:29:22;;;;;;;9.93;7.30;;;;;;;18.24;60.99;98661.31;4940991;28;20434;-77
2023/06/25 02:31:47;;;;;;;7.55;6.70;;;;;;;18.43;60.92;98656.00;4947206;29;20028;-77
2023/06/25 02:34:16;;;;;;;21.33;7.57;;;;;;;18.56;60.91;98663.56;4946204;28;20058;-76
2023/06/25 02:36:41;;;;;;;8.90;7.78;;;;;;;18.43;60.78;98666.91;4952467;29;20035;-76
2023/06/25 02:39:06;;;;;;;9.35;7.00;;;;;;;18.44;61.01;98652.16;4936454;29;20429;-75
2023/06/25 02:41:32;;;;;;;10.15;7.80;;;;;;;17.54;63.87;98659.75;4947383;28;20112;-75
2023/06/25 02:43:58;;;;;;;10.15;7.47;;;;;;;17.29;64.53;98673.44;4944218;29;20416;-76
2023/06/25 02:46:23;;;;;;;11.13;7.85;;;;;;;17.81;63.15;98664.81;4955510;28;20030;-76
2023/06/25 02:48:50;;;;;;;9.77;7.75;;;;;;;17.99;62.77;98660.66;4941237;29;20031;-76
2023/06/25 02:51:15;;;;;;;11.10;7.65;;;;;;;18.15;61.96;98660.28;4946196;29;20038;-76
2023/06/25 02:53:40;;;;;;;10.90;7.53;;;;;;;18.11;62.45;98669.31;4943490;29;20486;-76
2023/06/25 02:56:06;;;;;;;11.10;8.25;;;;;;;17.70;64.25;98674.13;4939246;28;20023;-76
2023/06/25 02:58:31;;;;;;;50.40;42.60;;;;;;;17.46;65.00;98673.91;4941875;28;20446;-72
2023/06/25 03:00:57;;;;;;;8.68;7.20;;;;;;;18.08;61.94;98669.88;4932971;29;20470;-72
2023/06/25 03:03:22;;;;;;;9.00;7.30;;;;;;;18.18;62.27;98670.59;4939665;29;20056;-73
2023/06/25 03:05:48;;;;;;;13.50;8.93;;;;;;;18.38;61.72;98669.69;4949547;29;20027;-72
2023/06/25 03:08:14;;;;;;;8.13;6.50;;;;;;;18.42;61.85;98665.28;4952005;28;20031;-73
2023/06/25 03:10:39;;;;;;;9.35;8.40;;;;;;;18.25;62.17;98664.88;4951974;28;20042;-72
2023/06/25 03:13:05;;;;;;;7.88;7.03;;;;;;;18.12;62.16;98665.47;4941642;28;20036;-74
2023/06/25 03:15:31;;;;;;;10.10;7.53;;;;;;;18.31;62.35;98661.00;4949379;29;20536;-74
2023/06/25 03:17:56;;;;;;;7.57;6.78;;;;;;;18.10;62.46;98665.75;4935999;29;20050;-73
2023/06/25 03:20:23;;;;;;;259.42;25.70;;;;;;;17.80;63.29;98664.03;4953952;28;20063;-73
2023/06/25 03:22:49;;;;;;;9.02;7.28;;;;;;;17.65;63.59;98677.69;4955189;28;20067;-73
2023/06/25 03:25:15;;;;;;;7.90;7.10;;;;;;;17.89;63.06;98667.78;4955585;28;20030;-73
2023/06/25 03:27:46;;;;;;;263.33;109.53;;;;;;;17.87;62.98;98669.97;4956257;28;20050;-73
2023/06/25 03:30:11;;;;;;;9.07;7.60;;;;;;;18.02;62.40;98665.56;4949464;28;20032;-75
2023/06/25 03:32:37;;;;;;;133.75;101.53;;;;;;;18.00;62.50;98656.81;4936272;29;20120;-76
2023/06/25 03:35:03;;;;;;;10.15;7.55;;;;;;;18.09;62.06;98655.13;4936228;29;20047;-74
2023/06/25 03:37:30;;;;;;;10.38;7.85;;;;;;;18.14;61.90;98657.81;4932757;29;20034;-74
2023/06/25 03:39:55;;;;;;;12.80;9.88;;;;;;;17.97;62.05;98651.94;4955225;29;20043;-75
2023/06/25 03:42:21;;;;;;;12.45;9.68;;;;;;;18.22;61.39;98660.78;4956533;28;20049;-74
2023/06/25 03:44:51;;;;;;;12.75;10.85;;;;;;;18.51;61.12;98653.50;4954962;28;20397;-74
2023/06/25 03:47:19;;;;;;;17.27;9.30;;;;;;;18.10;62.25;98659.50;4942867;29;20109;-72
2023/06/25 03:49:46;;;;;;;14.07;11.02;;;;;;;18.38;62.02;98653.31;4954813;29;20474;-73
2023/06/25 03:52:14;;;;;;;13.32;10.48;;;;;;;18.37;62.27;98662.59;4942441;29;20042;-73
2023/06/25 03:54:40;;;;;;;11.93;10.13;;;;;;;18.09;63.68;98655.13;4935674;29;20019;-73
2023/06/25 03:57:06;;;;;;;12.18;9.73;;;;;;;18.20;63.13;98657.53;4945350;29;20078;-74
2023/06/25 03:59:31;;;;;;;11.60;9.48;;;;;;;17.98;63.52;98648.09;4948481;29;20567;-75
2023/06/25 04:01:57;;;;;;;11.95;9.00;;;;;;;18.13;63.66;98645.31;4948492;29;20524;-76
2023/06/25 04:04:22;;;;;;;11.60;9.25;;;;;;;18.23;63.39;98639.78;4948552;28;20036;-74
2023/06/25 04:06:48;;;;;;;12.18;8.80;;;;;;;17.91;64.60;98641.06;4935747;29;20055;-73
2023/06/25 04:09:14;;;;;;;14.85;10.27;;;;;;;18.39;63.32;98644.03;4935678;29;20111;-72
2023/06/25 04:11:40;;;;;;;128.63;18.48;;;;;;;18.51;62.92;98644.50;4936015;29;20062;-72
2023/06/25 04:14:05;;;;;;;13.23;9.90;;;;;;;18.49;62.92;98646.72;4935208;29;20031;-73
2023/06/25 04:16:32;;;;;;;11.73;10.23;;;;;;;18.63;62.37;98643.06;4948368;29;20409;-72
2023/06/25 04:18:57;;;;;;;12.90;10.32;;;;;;;18.75;61.47;98639.97;4954418;29;20023;-74
2023/06/25 04:21:22;;;;;;;11.70;10.15;;;;;;;18.79;61.20;98638.28;4951298;28;20031;-74
2023/06/25 04:23:48;;;;;;;11.07;9.80;;;;;;;18.97;61.71;98648.50;4954292;28;20047;-73
2023/06/25 04:26:15;;;;;;;13.07;9.85;;;;;;;18.78;63.23;98647.56;4954465;29;20031;-74
2023/06/25 04:28:41;;;;;;;9.55;8.55;;;;;;;19.31;60.97;98643.78;4932244;29;20050;-75
2023/06/25 04:31:06;;;;;;;10.48;9.07;;;;;;;19.21;61.14;98641.13;4947175;28;20035;-75
2023/06/25 04:33:33;;;;;;;10.57;8.93;;;;;;;19.21;61.51;98641.13;4954067;28;20023;-75
2023/06/25 04:35:59;;;;;;;12.55;9.30;;;;;;;19.62;60.81;98636.06;4957064;28;20110;-75
2023/06/25 04:38:24;;;;;;;220.68;35.58;;;;;;;19.54;61.56;98623.03;4935159;29;20106;-74
2023/06/25 04:40:50;;;;;;;12.48;9.20;;;;;;;19.47;62.15;98643.63;4948047;29;20036;-76
2023/06/25 04:43:15;;;;;;;13.05;8.77;;;;;;;19.64;60.96;98630.31;4955893;28;20059;-75
2023/06/25 04:45:41;;;;;;;11.13;8.35;;;;;;;19.55;60.68;98635.63;4938269;29;20402;-74
2023/06/25 04:48:07;;;;;;;10.50;8.80;;;;;;;19.89;60.39;98627.22;4941583;29;20528;-74
2023/06/25 04:50:32;;;;;;;160.35;26.60;;;;;;;19.79;59.50;98625.44;4970348;28;20121;-73
2023/06/25 04:52:58;;;;;;;10.02;8.48;;;;;;;19.85;59.67;98632.50;4963758;28;20422;-73
2023/06/25 04:55:23;;;;;;;10.93;8.27;;;;;;;20.00;58.87;98625.97;4950584;29;20043;-74
2023/06/25 04:57:49;;;;;;;9.18;7.93;;;;;;;20.23;58.77;98625.16;4935761;29;20039;-74
2023/06/25 05:00:15;;;;;;;9.95;8.10;;;;;;;20.59;57.92;98623.47;4934743;29;20112;-75
2023/06/25 05:02:40;;;;;;;9.90;8.90;;;;;;;20.09;59.74;98634.34;4940707;29;20090;-75
2023/06/25 05:05:06;;;;;;;9.73;7.93;;;;;;;19.84;60.04;98633.59;4946277;28;20066;-75
2023/06/25 05:07:31;;;;;;;10.43;8.40;;;;;;;19.44;64.48;98630.56;4954965;29;20023;-76
2023/06/25 05:09:56;;;;;;;9.88;8.45;;;;;;;19.03;65.42;98644.59;4958337;28;20054;-78
2023/06/25 05:12:22;;;;;;;491.70;44.72;;;;;;;19.21;65.65;98630.22;4944631;29;20058;-78
2023/06/25 05:14:47;;;;;;;9.15;7.85;;;;;;;19.18;64.67;98641.72;4943508;28;20036;-73
2023/06/25 05:17:13;;;;;;;12.60;8.57;;;;;;;19.15;63.94;98636.84;4968965;28;20098;-74
2023/06/25 05:19:38;;;;;;;10.70;8.48;;;;;;;19.23;63.97;98638.94;4969552;28;20063;-73
2023/06/25 05:22:05;;;;;;;9.70;8.27;;;;;;;20.17;61.40;98629.03;4951334;28;20027;-75
2023/06/25 05:24:30;;;;;;;8.73;7.57;;;;;;;20.30;60.25;98628.34;4945936;29;20136;-74
2023/06/25 05:26:55;;;;;;;10.57;7.95;;;;;;;20.18;62.02;98614.25;4949495;28;20474;-74
2023/06/25 05:29:21;;;;;;;9.68;7.20;;;;;;;20.53;60.06;98626.59;4934270;29;20043;-75
2023/06/25 05:31:46;;;;;;;42.35;8.07;;;;;;;20.76;60.36;98625.66;4950113;29;20042;-74
2023/06/25 05:34:12;;;;;;;7.85;7.07;;;;;;;20.62;60.51;98622.88;4944756;28;20043;-74
2023/06/25 05:36:37;;;;;;;9.02;7.50;;;;;;;20.48;60.93;98619.28;4953354;28;20055;-75
2023/06/25 05:39:02;;;;;;;11.48;8.40;;;;;;;20.39;62.20;98623.81;4941101;28;20036;-75
2023/06/25 05:41:28;;;;;;;11.13;7.68;;;;;;;20.47;61.62;98617.66;4946806;29;20506;-75
2023/06/25 05:43:53;;;;;;;9.63;7.22;;;;;;;20.03;62.34;98614.47;4933283;29;20046;-74
2023/06/25 05:46:18;;;;;;;9.27;7.45;;;;;;;20.49;61.29;98620.91;4963479;28;20101;-75
2023/06/25 05:48:44;;;;;;;8.23;7.20;;;;;;;20.94;60.60;98618.50;4968494;28;20050;-74
2023/06/25 05:51:10;;;;;;;9.07;7.03;;;;;;;21.19;59.19;98618.88;4940916;29;20023;-74
2023/06/25 05:53:43;;;;;;;8.85;6.97;;;;;;;21.74;56.50;98622.44;4968901;28;20046;-74
2023/06/25 05:56:09;;;;;;;8.30;6.57;;;;;;;21.95;54.17;98623.66;4976180;28;20039;-74
2023/06/25 05:58:35;;;;;;;10.10;7.15;;;;;;;21.80;53.69;98618.47;4952938;29;20031;-73
2023/06/25 06:01:00;;;;;;;12.32;7.07;;;;;;;22.38;53.00;98620.50;4956148;28;20122;-76
2023/06/25 06:03:26;;;;;;;8.52;6.00;;;;;;;22.13;54.51;98616.41;4941990;28;20115;-75
2023/06/25 06:05:52;;;;;;;6.97;6.28;;;;;;;22.03;53.95;98625.66;4947862;29;20106;-76
2023/06/25 06:08:18;;;;;;;8.13;6.13;;;;;;;21.86;53.33;98631.00;4935057;29;20445;-76
2023/06/25 06:10:43;;;;;;;8.00;6.70;;;;;;;21.97;53.44;98634.31;4968026;28;20035;-76
2023/06/25 06:13:08;;;;;;;8.68;6.68;;;;;;;21.71;55.81;98639.50;4936601;29;20038;-76
2023/06/25 06:15:34;;;;;;;7.43;6.40;;;;;;;21.78;55.40;98628.94;4952965;28;20190;-75
2023/06/25 06:17:59;;;;;;;8.73;6.55;;;;;;;21.88;55.30;98630.69;4952948;28;20520;-76
2023/06/25 06:20:25;;;;;;;9.20;6.80;;;;;;;22.55;52.59;98637.09;4956147;28;20036;-76
2023/06/25 06:22:50;;;;;;;9.38;6.53;;;;;;;22.30;53.20;98632.22;4956065;28;20034;-75
2023/06/25 06:25:15;;;;;;;8.15;5.80;;;;;;;22.46;53.23;98631.53;4963961;28;20050;-77
2023/06/25 06:27:41;;;;;;;9.68;6.75;;;;;;;22.19;53.77;98625.34;4949627;29;20063;-77
2023/06/25 06:30:07;;;;;;;8.10;6.53;;;;;;;22.41;53.19;98619.88;4946213;29;20083;-77
2023/06/25 06:32:32;;;;;;;7.90;6.95;;;;;;;22.74;53.13;98628.69;4945831;29;20023;-76
2023/06/25 06:34:58;;;;;;;8.18;6.65;;;;;;;22.41;53.42;98634.41;4939664;29;20118;-77
2023/06/25 06:37:23;;;;;;;8.50;6.72;;;;;;;22.83;53.62;98627.63;4953733;28;20035;-77
2023/06/25 06:39:48;;;;;;;8.10;6.50;;;;;;;22.71;54.24;98627.38;4940741;28;20035;-76
2023/06/25 06:42:14;;;;;;;8.98;7.20;;;;;;;22.71;52.96;98629.34;4949458;29;20036;-76
2023/06/25 06:44:39;;;;;;;8.63;6.53;;;;;;;22.89;53.40;98636.56;4967428;28;20461;-77
2023/06/25 06:47:05;;;;;;;7.47;6.38;;;;;;;22.58;53.41;98636.47;4936485;29;20063;-74
2023/06/25 06:49:30;;;;;;;9.80;6.25;;;;;;;22.97;52.67;98633.03;4948986;29;20039;-77
2023/06/25 06:51:56;;;;;;;8.32;6.47;;;;;;;23.02;51.59;98641.97;4959851;28;20031;-77
2023/06/25 06:54:21;;;;;;;8.18;6.95;;;;;;;23.14;51.71;98628.47;4938196;28;20094;-77
2023/06/25 06:56:46;;;;;;;7.18;6.47;;;;;;;23.34;52.46;98646.34;4950386;29;20062;-77
2023/06/25 06:59:12;;;;;;;9.45;6.45;;;;;;;23.09;52.18;98653.34;4957591;28;20046;-77
2023/06/25 07:01:37;;;;;;;8.40;6.57;;;;;;;23.68;51.05;98648.47;4974303;28;20442;-76
2023/06/25 07:04:03;;;;;;;7.47;6.20;;;;;;;23.13;51.85;98648.00;4957640;28;20039;-77
2023/06/25 07:06:28;;;;;;;8.35;6.85;;;;;;;23.26;51.59;98652.63;4964758;28;20055;-77
2023/06/25 07:08:53;;;;;;;6.85;6.10;;;;;;;23.76;50.23;98645.72;4955731;29;20450;-77
2023/06/25 07:11:19;;;;;;;7.55;6.15;;;;;;;24.44;48.79;98631.31;4958473;28;20019;-77
2023/06/25 07:13:45;;;;;;;8.40;7.10;;;;;;;24.51;48.09;98639.88;4963808;28;20387;-77
2023/06/25 07:16:11;;;;;;;7.05;5.95;;;;;;;24.01;50.78;98635.94;4961056;29;20026;-77
2023/06/25 07:18:36;;;;;;;10.52;6.82;;;;;;;23.41;51.79;98637.69;4957644;29;20035;-77
2023/06/25 07:21:02;;;;;;;7.55;5.80;;;;;;;23.80;50.07;98651.41;4964101;28;20052;-77
2023/06/25 07:23:27;;;;;;;6.68;6.07;;;;;;;24.40;47.85;98638.59;4952255;29;20039;-77
2023/06/25 07:25:53;;;;;;;6.47;5.00;;;;;;;24.84;44.89;98622.88;4946232;29;20034;-77
2023/06/25 07:28:18;;;;;;;6.70;5.38;;;;;;;25.08;44.01;98642.44;4950679;29;20401;-76
2023/06/25 07:30:43;;;;;;;6.53;5.78;;;;;;;24.99;43.55;98634.19;4946658;29;20078;-77
2023/06/25 07:33:09;;;;;;;7.03;4.90;;;;;;;25.28;43.58;98634.28;4958396;28;20058;-77
2023/06/25 07:35:34;;;;;;;6.10;5.28;;;;;;;25.56;43.65;98631.91;4946718;29;20035;-77
2023/06/25 07:37:59;;;;;;;6.03;5.43;;;;;;;25.83;42.60;98631.47;4949065;29;20083;-77
2023/06/25 07:40:25;;;;;;;5.72;5.13;;;;;;;24.62;44.35;98635.66;4961319;28;20568;-77
2023/06/25 07:42:50;;;;;;;6.80;5.45;;;;;;;25.16;44.79;98638.84;4955740;28;20031;-77
2023/06/25 07:45:15;;;;;;;6.97;5.10;;;;;;;25.17;43.21;98624.75;4955521;28;20522;-77
2023/06/25 07:47:41;;;;;;;6.25;4.95;;;;;;;25.26;43.50;98632.97;4971610;28;20053;-75
2023/06/25 07:50:07;;;;;;;8.00;4.93;;;;;;;24.85;44.55;98628.06;4946804;28;20074;-76
2023/06/25 07:52:32;;;;;;;6.38;4.95;;;;;;;24.65;43.77;98624.00;4949152;29;20031;-76
2023/06/25 07:54:58;;;;;;;7.90;5.30;;;;;;;24.61;44.77;98623.03;4960727;28;20078;-76
2023/06/25 07:57:23;;;;;;;6.20;4.95;;;;;;;25.12;44.18;98624.09;4956415;28;20389;-76
2023/06/25 07:59:48;;;;;;;7.82;5.40;;;;;;;25.03;44.72;98617.81;4970581;28;20031;-75
2023/06/25 08:02:14;;;;;;;6.25;5.47;;;;;;;25.87;42.60;98621.38;4972127;28;20039;-77
2023/06/25 08:04:39;;;;;;;6.50;5.43;;;;;;;25.28;44.04;98611.38;4948524;28;20027;-77
2023/06/25 08:07:05;;;;;;;7.15;5.53;;;;;;;25.87;42.38;98618.63;4968979;28;20050;-79
2023/06/25 08:09:31;;;;;;;6.47;5.10;;;;;;;25.98;42.61;98617.06;4949347;28;20028;-77
2023/06/25 08:11:57;;;;;;;5.88;5.28;;;;;;;26.20;44.00;98618.75;4961221;29;20039;-77
2023/06/25 08:14:22;;;;;;;47.15;7.38;;;;;;;26.41;42.02;98624.28;4947546;29;20034;-77
2023/06/25 08:16:47;;;;;;;186.48;24.33;;;;;;;25.99;43.68;98613.19;4952464;29;20497;-75
2023/06/25 08:19:13;;;;;;;6.28;4.88;;;;;;;26.43;43.33;98610.94;4955433;29;20051;-77
2023/06/25 08:21:38;;;;;;;40.22;8.32;;;;;;;26.72;41.53;98625.44;4939898;29;20410;-77
2023/06/25 08:24:04;;;;;;;7.57;5.90;;;;;;;26.63;41.52;98616.44;4960431;28;20500;-77
2023/06/25 08:26:29;;;;;;;5.95;5.35;;;;;;;26.69;41.25;98603.22;4955431;29;20039;-76
2023/06/25 08:28:55;;;;;;;7.00;5.43;;;;;;;26.34;41.34;98618.47;4971115;28;20474;-76
2023/06/25 08:31:21;;;;;;;7.40;5.38;;;;;;;24.94;43.59;98612.31;4942169;28;20054;-77
2023/06/25 08:33:46;;;;;;;5.60;5.07;;;;;;;26.25;42.48;98604.75;4962838;28;20032;-76
2023/06/25 08:36:12;;;;;;;5.97;5.07;;;;;;;26.79;40.80;98608.38;4951149;29;20102;-77
2023/06/25 08:38:37;;;;;;;8.18;6.10;;;;;;;26.33;41.67;98612.13;4970989;28;20023;-77
2023/06/25 08:41:03;;;;;;;6.25;5.50;;;;;;;26.87;41.47;98607.47;4940803;28;20043;-77
2023/06/25 08:43:28;;;;;;;6.95;5.50;;;;;;;27.04;41.76;98593.47;4959309;28;20035;-76
2023/06/25 08:45:53;;;;;;;6.05;5.38;;;;;;;26.93;40.54;98592.28;4970775;28;20039;-77
2023/06/25 08:48:19;;;;;;;7.65;6.95;;;;;;;26.90;40.34;98598.50;4955000;28;20112;-77
2023/06/25 08:50:51;;;;;;;7.30;5.15;;;;;;;27.21;40.21;98598.00;4940741;29;20111;-75
2023/06/25 08:53:17;;;;;;;8.73;5.10;;;;;;;26.46;39.66;98588.16;4960017;28;20035;-76
2023/06/25 08:55:43;;;;;;;6.40;5.80;;;;;;;26.72;40.77;98585.97;4953642;29;20545;-77
2023/06/25 08:58:08;;;;;;;7.97;7.38;;;;;;;26.64;39.86;98589.63;4954836;29;20035;-77
2023/06/25 09:00:34;;;;;;;33.20;5.90;;;;;;;26.85;38.68;98584.88;4958374;28;20078;-76
2023/06/25 09:02:59;;;;;;;204.20;33.28;;;;;;;26.46;39.25;98582.63;4946241;28;20035;-77
2023/06/25 09:05:28;;;;;;;5.22;4.60;;;;;;;26.96;38.83;98580.53;4948891;29;20027;-77
2023/06/25 09:07:53;;;;;;;6.47;4.57;;;;;;;27.31;38.07;98581.75;4945839;28;20486;-76
2023/06/25 09:10:20;;;;;;;7.30;5.57;;;;;;;27.04;40.52;98579.63;4949264;28;20019;-77
2023/06/25 09:12:47;;;;;;;5.47;4.68;;;;;;;26.18;39.61;98576.88;4949149;28;20431;-77
2023/06/25 09:15:18;;;;;;;5.57;4.63;;;;;;;26.85;38.92;98582.13;4949214;29;20051;-76
2023/06/25 09:17:44;;;;;;;9.07;5.15;;;;;;;26.72;39.57;98574.91;4921296;29;20074;-76
2023/06/25 09:20:09;;;;;;;5.80;5.22;;;;;;;26.95;38.20;98578.94;4969296;28;20389;-76
2023/06/25 09:22:51;;;;;;;6.82;5.05;;;;;;;27.68;38.19;98576.25;4967853;28;20110;-76
2023/06/25 09:25:18;;;;;;;129.32;19.05;;;;;;;27.78;38.12;98573.81;4958559;28;20102;-76
2023/06/25 09:27:44;;;;;;;5.20;4.70;;;;;;;27.97;38.11;98564.91;4965831;28;20061;-76
2023/06/25 09:30:13;;;;;;;5.10;4.60;;;;;;;28.18;37.13;98567.53;4949083;28;20058;-77
2023/06/25 09:32:51;;;;;;;6.18;5.32;;;;;;;27.22;37.50;98567.22;4934917;29;20110;-76
2023/06/25 09:35:29;;;;;;;5.28;4.80;;;;;;;27.74;37.38;98572.09;4976577;28;20035;-76
2023/06/25 09:37:55;;;;;;;7.05;4.93;;;;;;;27.15;39.20;98564.19;4960268;28;20082;-77
2023/06/25 09:40:21;;;;;;;5.75;5.07;;;;;;;27.34;37.78;98560.88;4970757;28;20031;-76
2023/06/25 09:42:54;;;;;;;6.25;5.10;;;;;;;27.03;39.03;98558.66;4962798;28;20046;-76
2023/06/25 09:45:21;;;;;;;6.43;5.32;;;;;;;27.67;38.76;98549.72;4979767;28;20097;-76
2023/06/25 09:47:47;;;;;;;203.90;30.85;;;;;;;28.19;38.39;98556.13;4976423;28;20026;-77
2023/06/25 09:50:17;;;;;;;7.13;5.20;;;;;;;28.60;38.44;98547.44;4950526;28;20034;-75
2023/06/25 09:52:51;;;;;;;7.07;5.05;;;;;;;28.13;38.01;98551.97;4953275;28;20401;-75
2023/06/25 09:55:16;;;;;;;559.35;53.42;;;;;;;26.36;41.19;98555.41;4938369;28;20035;-76
2023/06/25 09:57:42;;;;;;;6.90;5.35;;;;;;;26.97;39.45;98551.75;4939700;29;20142;-76
2023/06/25 10:00:09;;;;;;;6.18;5.28;;;;;;;26.90;40.32;98551.50;4943010;29;20062;-76
2023/06/25 10:02:37;;;;;;;7.55;5.07;;;;;;;26.75;40.13;98546.59;4946745;29;20039;-74
2023/06/25 10:05:03;;;;;;;5.97;5.10;;;;;;;26.92;39.63;98540.91;4951433;28;20043;-75
2023/06/25 10:07:30;;;;;;;7.60;4.82;;;;;;;27.99;36.51;98537.69;4959085;28;20027;-76
2023/06/25 10:09:55;;;;;;;6.97;5.13;;;;;;;28.60;36.86;98528.03;4967355;28;20039;-76
2023/06/25 10:12:21;;;;;;;594.42;68.30;;;;;;;28.77;35.88;98531.63;4938123;28;20078;-76
2023/06/25 10:14:47;;;;;;;4.93;4.43;;;;;;;28.93;34.57;98527.72;4951722;28;20047;-76
2023/06/25 10:17:13;;;;;;;5.25;4.50;;;;;;;27.69;35.72;98530.78;4963008;28;20023;-76
2023/06/25 10:19:38;;;;;;;5.93;4.15;;;;;;;27.51;36.83;98523.91;4948840;28;20022;-76
2023/06/25 10:22:04;;;;;;;5.88;4.50;;;;;;;29.06;35.68;98525.66;4953713;28;20023;-76
2023/06/25 10:24:38;;;;;;;5.10;4.60;;;;;;;28.38;35.82;98520.22;4956913;28;20110;-76
2023/06/25 10:27:04;;;;;;;5.50;4.20;;;;;;;28.71;35.20;98526.34;4941192;29;20039;-76
2023/06/25 10:29:41;;;;;;;6.80;4.78;;;;;;;29.25;34.49;98517.47;4953046;28;20461;-76
2023/06/25 10:32:06;;;;;;;445.58;45.70;;;;;;;29.15;35.14;98512.44;4953835;28;20075;-76
2023/06/25 10:34:38;;;;;;;575.63;62.50;;;;;;;29.08;37.20;98513.03;4948110;28;20029;-76
2023/06/25 10:37:05;;;;;;;4.97;4.45;;;;;;;29.31;34.46;98511.25;4953635;28;20046;-76
2023/06/25 10:39:37;;;;;;;4.82;4.30;;;;;;;28.02;35.99;98512.06;4939687;28;20032;-76
2023/06/25 10:42:03;;;;;;;4.78;4.28;;;;;;;28.28;35.57;98509.69;4933457;29;20086;-76
2023/06/25 10:44:28;;;;;;;5.80;4.50;;;;;;;28.80;34.93;98503.19;4962081;28;20059;-76
2023/06/25 10:47:04;;;;;;;5.95;4.47;;;;;;;27.95;35.82;98500.75;4930835;28;20034;-75
2023/06/25 10:49:29;;;;;;;4.97;4.47;;;;;;;28.77;35.06;98503.91;4942067;29;20031;-76
2023/06/25 10:51:57;;;;;;;5.05;4.55;;;;;;;29.32;33.30;98503.75;4974571;28;20038;-76
2023/06/25 10:54:23;;;;;;;93.68;11.35;;;;;;;28.58;34.41;98501.78;4938848;28;20050;-76
2023/06/25 10:56:49;;;;;;;5.25;4.28;;;;;;;28.41;33.92;98500.13;4942932;29;20035;-76
2023/06/25 10:59:22;;;;;;;10.50;5.03;;;;;;;29.34;33.25;98498.66;4930826;28;20031;-75
2023/06/25 11:01:47;;;;;;;6.80;4.88;;;;;;;30.07;32.11;98491.22;4952041;28;20057;-76
2023/06/25 11:04:13;;;;;;;6.07;4.80;;;;;;;30.46;31.01;98497.59;4944410;28;20539;-76
2023/06/25 11:06:39;;;;;;;52.05;11.30;;;;;;;30.37;32.44;98490.66;4963276;28;20027;-76
2023/06/25 11:09:04;;;;;;;5.78;4.65;;;;;;;29.86;31.12;98479.66;4955912;28;20434;-75
2023/06/25 11:11:30;;;;;;;5.30;4.75;;;;;;;28.92;31.55;98483.69;4966670;28;20114;-76
2023/06/25 11:13:55;;;;;;;5.75;4.40;;;;;;;28.95;32.36;98483.78;4925246;29;20039;-76
2023/06/25 11:16:21;;;;;;;6.93;4.80;;;;;;;30.40;32.81;98473.25;4975924;28;20035;-76
2023/06/25 11:18:50;;;;;;;5.18;4.55;;;;;;;30.65;31.79;98471.72;4943650;29;20061;-76
2023/06/25 11:21:16;;;;;;;5.20;4.50;;;;;;;30.42;31.03;98473.69;4972726;28;20489;-76
2023/06/25 11:23:45;;;;;;;456.05;57.30;;;;;;;30.73;30.58;98462.34;4934630;29;20056;-75